Time;durP1;ratioP1;P1;durP2;ratioP2;P2;SDS_P1;SDS_P2;PMS_P1;PMS_P2;Temp;Humidity;BMP_temperature;BMP_pressure;BME280_temperature;BME280_humidity;BME280_pressure;Samples;Min_cycle;Max_cycle;Signal;HPM_P1;HPM_P2
2024/03/06 00:00:23;;;;;;;;;;;6.40;99.90;;;6.59;71.16;100559.75;4944030;29;19927;-82
2024/03/06 00:02:51;;;;;;;;;;;6.40;99.90;;;6.57;71.63;100564.38;4943542;29;19933;-82
2024/03/06 00:05:18;;;;;;;;;;;6.30;99.90;;;6.54;71.56;100572.72;4944205;29;19974;-81
2024/03/06 00:07:47;;;;;;;;;;;6.30;99.90;;;6.54;71.27;100571.88;4958251;29;19966;-82
2024/03/06 00:10:17;;;;;;;;;;;6.30;99.90;;;6.54;71.10;100577.16;4957996;29;19927;-82
2024/03/06 00:12:44;;;;;;;;;;;6.30;99.90;;;6.53;71.29;100586.94;4943465;29;19934;-82
2024/03/06 00:15:11;;;;;;;;;;;6.30;99.90;;;6.51;71.58;100583.66;4958487;28;19930;-82
2024/03/06 00:17:38;;;;;;;;;;;6.30;99.90;;;6.51;71.51;100593.44;4942616;29;19928;-82
2024/03/06 00:20:08;;;;;;;;;;;6.30;99.90;;;6.49;71.66;100579.53;4943136;29;19934;-81
2024/03/06 00:22:35;;;;;;;;;;;6.30;99.90;;;6.51;71.72;100582.84;4942678;29;19934;-82
2024/03/06 00:25:05;;;;;;;;;;;6.60;99.90;;;6.49;71.79;100585.69;4941923;29;19958;-81
2024/03/06 00:27:33;;;;;;;;;;;6.30;99.90;;;6.53;72.06;100594.91;4941482;29;19927;-82
2024/03/06 00:30:00;;;;;;;;;;;6.30;99.90;;;6.55;72.15;100595.56;4943200;29;19973;-82
2024/03/06 00:32:28;;;;;;;;;;;6.30;99.90;;;6.54;72.49;100611.63;4941397;29;20021;-82
2024/03/06 00:34:55;;;;;;;;;;;6.20;99.90;;;6.53;72.69;100608.16;4941959;29;19927;-82
2024/03/06 00:37:22;;;;;;;;;;;6.30;99.90;;;6.51;72.64;100612.81;4956753;28;20025;-82
2024/03/06 00:39:50;;;;;;;;;;;6.30;99.90;;;6.49;72.67;100609.53;4941796;29;20037;-82
2024/03/06 00:42:18;;;;;;;;;;;6.20;99.90;;;6.48;72.54;100607.88;4941296;29;19974;-81
2024/03/06 00:44:45;;;;;;;;;;;6.20;99.90;;;6.47;72.12;100619.47;4942808;29;19951;-82
2024/03/06 00:47:13;;;;;;;;;;;6.20;99.90;;;6.45;71.84;100627.63;4948819;29;19930;-81
2024/03/06 00:49:42;;;;;;;;;;;6.10;99.90;;;6.44;71.86;100630.41;4944390;29;19926;-82
2024/03/06 00:52:09;;;;;;;;;;;6.10;99.90;;;6.40;71.69;100622.03;4944688;29;19934;-81
2024/03/06 00:54:36;;;;;;;;;;;6.20;99.90;;;6.40;71.64;100621.22;4944643;29;20351;-81
2024/03/06 00:57:03;;;;;;;;;;;6.10;99.90;;;6.40;71.34;100623.88;4943515;28;20303;-81
2024/03/06 00:59:34;;;;;;;;;;;6.10;99.90;;;6.36;71.21;100623.38;4961950;29;19961;-82
2024/03/06 01:02:01;;;;;;;;;;;6.10;99.90;;;6.34;71.22;100622.72;4943500;29;19926;-81
2024/03/06 01:04:28;;;;;;;;;;;6.10;99.90;;;6.36;71.24;100627.88;4945040;29;19927;-81
2024/03/06 01:06:56;;;;;;;;;;;6.10;99.90;;;6.33;71.15;100634.34;4962044;29;19933;-82
2024/03/06 01:09:24;;;;;;;;;;;6.10;99.90;;;6.33;71.24;100639.63;4960763;29;20037;-81
2024/03/06 01:11:51;;;;;;;;;;;6.10;99.90;;;6.33;71.20;100644.09;4944687;29;19926;-81
2024/03/06 01:14:18;;;;;;;;;;;6.10;99.90;;;6.32;71.22;100648.59;4944785;29;19930;-82
2024/03/06 01:16:47;;;;;;;;;;;6.10;99.90;;;6.32;71.54;100651.22;4961756;28;19953;-82
2024/03/06 01:19:15;;;;;;;;;;;6.10;99.90;;;6.31;71.44;100651.44;4943477;29;19930;-81
2024/03/06 01:21:42;;;;;;;;;;;6.00;99.90;;;6.31;71.62;100651.44;4960696;29;19927;-82
2024/03/06 01:24:09;;;;;;;;;;;6.00;99.90;;;6.29;71.60;100658.72;4959844;28;19927;-82
2024/03/06 01:26:36;;;;;;;;;;;6.00;99.90;;;6.29;71.90;100653.41;4959916;29;19926;-82
2024/03/06 01:29:03;;;;;;;;;;;6.00;99.90;;;6.30;71.84;100655.09;4927646;29;19930;-82
2024/03/06 01:31:30;;;;;;;;;;;6.00;99.90;;;6.32;72.32;100655.72;4961615;29;19990;-81
2024/03/06 01:33:59;;;;;;;;;;;6.10;99.90;;;6.32;72.28;100658.34;4943984;29;19926;-82
2024/03/06 01:36:26;;;;;;;;;;;6.10;99.90;;;6.32;72.00;100664.47;4943723;29;19926;-82
2024/03/06 01:38:53;;;;;;;;;;;6.10;99.90;;;6.32;72.17;100664.47;4943989;29;19974;-82
2024/03/06 01:41:20;;;;;;;;;;;6.00;99.90;;;6.31;72.38;100654.06;4943086;29;19926;-82
2024/03/06 01:43:49;;;;;;;;;;;6.00;99.90;;;6.29;72.09;100656.06;4943404;29;19951;-82
2024/03/06 01:46:17;;;;;;;;;;;6.00;99.90;;;6.28;71.85;100655.25;4927822;29;20345;-81
2024/03/06 01:48:44;;;;;;;;;;;6.00;99.90;;;6.26;72.18;100651.13;4957889;28;19926;-82
2024/03/06 01:51:13;;;;;;;;;;;6.00;99.90;;;6.24;72.36;100650.47;4944373;29;20438;-82
2024/03/06 01:53:42;;;;;;;;;;;6.10;99.90;;;6.25;72.37;100654.78;4961169;29;19950;-81
2024/03/06 01:56:11;;;;;;;;;;;6.00;99.90;;;6.26;72.34;100653.78;4961111;29;19926;-81
2024/03/06 01:58:39;;;;;;;;;;;6.00;99.90;;;6.26;72.10;100659.09;4943404;29;19934;-82
2024/03/06 02:01:06;;;;;;;;;;;6.00;99.90;;;6.24;71.85;100651.28;4961762;29;19933;-82
2024/03/06 02:03:34;;;;;;;;;;;6.00;99.90;;;6.25;71.92;100654.78;4960744;29;19930;-82
2024/03/06 02:06:03;;;;;;;;;;;6.00;99.90;;;6.23;72.29;100659.44;4943336;29;20363;-82
2024/03/06 02:08:32;;;;;;;;;;;6.00;99.90;;;6.21;72.14;100659.63;4960266;28;19933;-82
2024/03/06 02:11:02;;;;;;;;;;;6.00;99.90;;;6.19;72.32;100657.13;4943675;29;20402;-82
2024/03/06 02:13:29;;;;;;;;;;;6.00;99.90;;;6.19;72.46;100659.78;4959700;29;19926;-82
2024/03/06 02:15:56;;;;;;;;;;;6.00;99.90;;;6.22;72.59;100657.78;4960885;29;20407;-81
2024/03/06 02:18:24;;;;;;;;;;;6.00;99.90;;;6.22;72.42;100660.44;4975462;28;19962;-82
2024/03/06 02:20:52;;;;;;;;;;;6.00;99.90;;;6.19;72.31;100657.13;4943805;29;19957;-82
2024/03/06 02:23:21;;;;;;;;;;;5.90;99.90;;;6.21;72.21;100658.78;4959915;29;19927;-82
2024/03/06 02:25:49;;;;;;;;;;;5.90;99.90;;;6.18;71.90;100659.97;4960615;29;19965;-81
2024/03/06 02:28:17;;;;;;;;;;;5.90;99.90;;;6.15;72.00;100663.81;4942760;29;19991;-81
2024/03/06 02:30:45;;;;;;;;;;;5.90;99.90;;;6.11;71.84;100657.22;4960417;28;20414;-81
2024/03/06 02:33:13;;;;;;;;;;;5.80;99.90;;;6.08;71.48;100654.91;4942780;29;20387;-82
2024/03/06 02:35:40;;;;;;;;;;;5.80;99.90;;;6.02;71.66;100663.56;4943240;29;19934;-82
2024/03/06 02:38:09;;;;;;;;;;;5.70;99.90;;;5.98;71.42;100656.97;4960535;28;19969;-81
2024/03/06 02:40:36;;;;;;;;;;;5.70;99.90;;;5.96;71.31;100658.16;4943179;29;20395;-82
2024/03/06 02:43:04;;;;;;;;;;;5.70;99.90;;;5.91;71.17;100656.00;4942892;29;19926;-81
2024/03/06 02:45:31;;;;;;;;;;;5.60;99.90;;;5.87;70.76;100654.72;4960901;29;19990;-82
2024/03/06 02:47:59;;;;;;;;;;;5.60;99.90;;;5.84;70.92;100660.34;4961557;29;20308;-82
2024/03/06 02:50:26;;;;;;;;;;;5.60;99.90;;;5.82;70.78;100651.75;4943367;29;19930;-81
2024/03/06 02:52:53;;;;;;;;;;;5.50;99.90;;;5.80;70.58;100659.03;4961223;28;19931;-82
2024/03/06 02:55:23;;;;;;;;;;;5.50;99.90;;;5.75;70.62;100656.09;4942954;29;19997;-82
2024/03/06 02:57:50;;;;;;;;;;;5.50;99.90;;;5.72;70.01;100662.56;4960176;29;19933;-82
2024/03/06 03:00:17;;;;;;;;;;;5.40;99.90;;;5.67;70.09;100660.44;4959671;29;19933;-82
2024/03/06 03:02:45;;;;;;;;;;;5.40;99.90;;;5.63;70.06;100661.78;4959798;29;19940;-82
2024/03/06 03:05:12;;;;;;;;;;;5.30;99.90;;;5.59;69.71;100662.31;4943014;29;20416;-82
2024/03/06 03:07:39;;;;;;;;;;;5.30;99.90;;;5.55;69.75;100664.47;4960348;29;19927;-81
2024/03/06 03:10:07;;;;;;;;;;;5.20;99.90;;;5.52;70.03;100664.84;4939756;29;19955;-82
2024/03/06 03:12:36;;;;;;;;;;;5.20;99.90;;;5.52;70.31;100667.47;4923543;29;19962;-82
2024/03/06 03:15:04;;;;;;;;;;;5.20;99.90;;;5.51;70.38;100660.53;4935949;29;20224;-81
2024/03/06 03:17:31;;;;;;;;;;;5.20;99.90;;;5.52;70.77;100672.78;4963477;29;19954;-81
2024/03/06 03:19:58;;;;;;;;;;;5.30;99.90;;;5.55;70.68;100666.28;4947622;28;19927;-81
2024/03/06 03:22:26;;;;;;;;;;;5.30;99.90;;;5.56;71.23;100666.16;4949192;29;19962;-82
2024/03/06 03:24:53;;;;;;;;;;;5.40;99.90;;;5.57;71.51;100670.44;4947783;29;20396;-82
2024/03/06 03:27:20;;;;;;;;;;;5.40;99.90;;;5.62;71.38;100675.19;4948101;29;20443;-81
2024/03/06 03:29:49;;;;;;;;;;;5.40;99.90;;;5.60;71.33;100667.41;4963065;29;19926;-81
2024/03/06 03:32:16;;;;;;;;;;;5.40;99.90;;;5.61;71.77;100671.75;4945930;29;20386;-81
2024/03/06 03:34:43;;;;;;;;;;;5.40;99.90;;;5.62;71.79;100672.56;4962700;28;19954;-81
2024/03/06 03:37:10;;;;;;;;;;;5.40;99.90;;;5.63;71.73;100672.38;4945685;29;19969;-81
2024/03/06 03:39:37;;;;;;;;;;;5.40;99.90;;;5.67;71.96;100678.16;4962732;29;20356;-81
2024/03/06 03:42:06;;;;;;;;;;;5.50;99.90;;;5.70;72.21;100675.13;4945439;29;19932;-81
2024/03/06 03:44:33;;;;;;;;;;;5.50;99.90;;;5.75;72.28;100677.25;4962648;28;19950;-81
2024/03/06 03:47:02;;;;;;;;;;;5.60;99.90;;;5.76;72.06;100682.41;4957327;28;19934;-81
2024/03/06 03:49:29;;;;;;;;;;;5.60;99.90;;;5.80;72.42;100686.31;4925690;29;19927;-81
2024/03/06 03:51:56;;;;;;;;;;;5.60;99.90;;;5.83;72.44;100690.47;4941602;29;19934;-81
2024/03/06 03:54:23;;;;;;;;;;;5.60;99.90;;;5.85;72.34;100693.75;4941707;29;19978;-81
2024/03/06 03:56:50;;;;;;;;;;;5.60;99.90;;;5.84;72.45;100684.16;4926392;29;19978;-81
2024/03/06 03:59:18;;;;;;;;;;;5.60;99.90;;;5.84;72.36;100698.22;4942028;29;19970;-81
2024/03/06 04:01:46;;;;;;;;;;;5.60;99.90;;;5.88;72.70;100704.00;4942485;29;19949;-81
2024/03/06 04:04:15;;;;;;;;;;;5.70;99.90;;;5.91;72.48;100698.34;4943380;29;20336;-81
2024/03/06 04:06:42;;;;;;;;;;;5.70;99.90;;;5.90;72.39;100697.53;4943041;29;19927;-81
2024/03/06 04:09:09;;;;;;;;;;;5.70;99.90;;;5.93;72.73;100701.66;4940809;29;20312;-81
2024/03/06 04:11:37;;;;;;;;;;;5.70;99.90;;;5.93;72.52;100705.13;4957046;29;19949;-82
2024/03/06 04:14:06;;;;;;;;;;;5.70;99.90;;;5.94;72.86;100705.97;4942294;29;19930;-81
2024/03/06 04:16:33;;;;;;;;;;;5.80;99.90;;;5.93;72.64;100702.50;4956846;29;19934;-81
2024/03/06 04:19:00;;;;;;;;;;;5.80;99.90;;;5.92;72.71;100706.16;4942150;29;20025;-81
2024/03/06 04:21:29;;;;;;;;;;;5.70;99.90;;;5.94;72.85;100713.91;4941536;29;19927;-81
2024/03/06 04:23:56;;;;;;;;;;;6.00;99.90;;;5.96;72.64;100717.22;4942877;29;19933;-81
2024/03/06 04:26:23;;;;;;;;;;;5.80;99.90;;;5.99;73.07;100710.72;4942278;29;19927;-81
2024/03/06 04:28:50;;;;;;;;;;;5.80;99.90;;;5.99;72.91;100722.13;4941022;29;20383;-82
2024/03/06 04:31:17;;;;;;;;;;;5.80;99.90;;;5.99;73.03;100723.97;4942309;29;19926;-81
2024/03/06 04:33:44;;;;;;;;;;;5.80;99.90;;;5.98;73.14;100724.97;4942233;29;19931;-81
2024/03/06 04:36:12;;;;;;;;;;;5.80;99.90;;;5.98;73.04;100731.09;4956596;29;19927;-82
2024/03/06 04:38:41;;;;;;;;;;;5.80;99.90;;;5.99;73.19;100724.78;4942268;29;20019;-81
2024/03/06 04:41:08;;;;;;;;;;;5.80;99.90;;;6.01;72.84;100728.09;4937134;29;19975;-81
2024/03/06 04:43:35;;;;;;;;;;;5.80;99.90;;;5.99;73.38;100730.09;4929739;29;19969;-82
2024/03/06 04:46:03;;;;;;;;;;;5.80;99.90;;;5.98;73.27;100736.38;4948591;29;19961;-82
2024/03/06 04:48:30;;;;;;;;;;;5.80;99.90;;;6.00;72.99;100730.91;4927663;28;19986;-81
2024/03/06 04:50:57;;;;;;;;;;;5.80;99.90;;;5.99;73.28;100740.66;4959917;29;19927;-82
2024/03/06 04:53:25;;;;;;;;;;;5.80;99.90;;;5.98;72.95;100738.22;4961412;28;19937;-82
2024/03/06 04:55:53;;;;;;;;;;;5.80;99.90;;;5.96;72.55;100741.03;4949149;29;19990;-82
2024/03/06 04:58:21;;;;;;;;;;;5.80;99.90;;;5.96;72.53;100743.69;4941251;29;19926;-81
2024/03/06 05:00:48;;;;;;;;;;;5.80;99.90;;;5.95;72.83;100749.94;4940199;29;19986;-81
2024/03/06 05:03:16;;;;;;;;;;;5.70;99.90;;;5.93;72.29;100742.19;4940809;29;19927;-81
2024/03/06 05:05:43;;;;;;;;;;;5.70;99.90;;;5.93;72.08;100752.78;4940192;29;19934;-82
2024/03/06 05:08:10;;;;;;;;;;;5.70;99.90;;;5.91;72.16;100756.59;4940879;29;20388;-81
2024/03/06 05:10:37;;;;;;;;;;;5.60;99.90;;;5.90;72.03;100758.41;4940853;29;19974;-81
2024/03/06 05:13:06;;;;;;;;;;;5.70;99.90;;;5.92;72.15;100771.50;4942085;29;19931;-81
2024/03/06 05:15:34;;;;;;;;;;;5.70;99.90;;;5.90;72.08;100761.06;4941542;29;19931;-81
2024/03/06 05:18:01;;;;;;;;;;;5.60;99.90;;;5.89;71.98;100771.81;4955386;28;20018;-81
2024/03/06 05:20:30;;;;;;;;;;;5.60;99.90;;;5.86;71.71;100769.53;4953861;29;20392;-80
2024/03/06 05:22:57;;;;;;;;;;;5.60;99.90;;;5.84;71.61;100772.31;4939389;29;19998;-81
2024/03/06 05:25:25;;;;;;;;;;;5.50;99.90;;;5.83;71.32;100777.78;4953157;28;20451;-80
2024/03/06 05:27:52;;;;;;;;;;;5.60;99.90;;;5.77;71.30;100773.19;4938996;29;19933;-80
2024/03/06 05:30:21;;;;;;;;;;;5.50;99.90;;;5.74;71.17;100786.75;4938066;29;19970;-80
2024/03/06 05:32:49;;;;;;;;;;;5.50;99.90;;;5.73;70.93;100790.41;4938654;29;20029;-80
2024/03/06 05:35:16;;;;;;;;;;;5.50;99.90;;;5.71;70.85;100789.75;4938932;29;20021;-80
2024/03/06 05:37:44;;;;;;;;;;;5.40;99.90;;;5.68;70.65;100794.38;4919368;29;19959;-81
2024/03/06 05:40:13;;;;;;;;;;;5.40;99.90;;;5.66;71.03;100801.69;4920270;29;19927;-81
2024/03/06 05:42:40;;;;;;;;;;;5.40;99.90;;;5.63;70.80;100802.03;4921100;29;19934;-81
2024/03/06 05:45:10;;;;;;;;;;;5.30;99.90;;;5.60;70.91;100797.06;4920366;29;20273;-81
2024/03/06 05:47:39;;;;;;;;;;;5.30;99.90;;;5.59;70.88;100802.53;4936594;29;19931;-81
2024/03/06 05:50:07;;;;;;;;;;;5.30;99.90;;;5.57;70.85;100801.88;4926853;29;19933;-81
2024/03/06 05:52:35;;;;;;;;;;;5.30;99.90;;;5.54;70.86;100808.31;4939637;29;19927;-81
2024/03/06 05:55:02;;;;;;;;;;;5.20;99.90;;;5.53;70.60;100808.50;4938755;29;19966;-81
2024/03/06 05:57:29;;;;;;;;;;;5.20;99.90;;;5.52;70.57;100812.97;4940009;29;19974;-81
2024/03/06 05:59:56;;;;;;;;;;;5.20;99.90;;;5.50;70.86;100817.59;4955392;28;19982;-81
2024/03/06 06:02:24;;;;;;;;;;;5.20;99.90;;;5.49;70.85;100821.22;4954658;29;19927;-81
2024/03/06 06:04:53;;;;;;;;;;;5.20;99.90;;;5.49;70.98;100815.94;4939948;29;19927;-81
2024/03/06 06:07:20;;;;;;;;;;;5.20;99.90;;;5.47;71.04;100817.94;4954774;29;20368;-81
2024/03/06 06:09:47;;;;;;;;;;;5.20;99.90;;;5.45;71.33;100817.28;4938492;29;19973;-81
2024/03/06 06:12:14;;;;;;;;;;;5.20;99.90;;;5.43;71.33;100824.56;4936948;29;19978;-82
2024/03/06 06:14:41;;;;;;;;;;;5.20;99.90;;;5.39;71.00;100820.59;4920751;29;19955;-84
2024/03/06 06:17:09;;;;;;;;;;;5.10;99.90;;;5.35;71.03;100828.03;4937163;29;20300;-84
2024/03/06 06:19:36;;;;;;;;;;;5.10;99.90;;;5.33;70.72;100832.69;4937531;29;20341;-84
2024/03/06 06:22:11;;;;;;;;;;;5.10;99.90;;;5.31;71.03;100836.47;4955070;29;19974;-84
2024/03/06 06:24:40;;;;;;;;;;;5.10;99.90;;;5.36;71.13;100842.09;4938424;29;19927;-84
2024/03/06 06:27:08;;;;;;;;;;;5.10;99.90;;;5.39;70.97;100841.75;4941446;29;20300;-84
2024/03/06 06:29:35;;;;;;;;;;;5.10;99.90;;;5.38;70.73;100848.88;4940739;29;19931;-84
2024/03/06 06:32:03;;;;;;;;;;;5.10;99.90;;;5.36;71.14;100852.66;4939992;29;20407;-85
2024/03/06 06:34:31;;;;;;;;;;;5.10;99.90;;;5.36;71.00;100857.94;4922192;29;20002;-84
2024/03/06 06:36:58;;;;;;;;;;;5.10;99.90;;;5.36;71.04;100861.41;4937619;29;20448;-83
2024/03/06 06:39:27;;;;;;;;;;;5.10;99.90;;;5.38;71.17;100866.56;4940089;29;19931;-84
2024/03/06 06:41:54;;;;;;;;;;;5.10;99.90;;;5.37;70.95;100865.75;4938473;29;20352;-82
2024/03/06 06:44:21;;;;;;;;;;;5.10;99.90;;;5.32;70.82;100862.78;4938354;29;19927;-81
2024/03/06 06:46:49;;;;;;;;;;;5.10;99.90;;;5.31;70.78;100865.56;4936314;29;19931;-82
2024/03/06 06:49:17;;;;;;;;;;;5.10;99.90;;;5.31;71.20;100873.50;4934104;29;19926;-81
2024/03/06 06:51:44;;;;;;;;;;;5.10;99.90;;;5.30;71.11;100883.25;4956430;29;20013;-81
2024/03/06 06:54:12;;;;;;;;;;;5.10;99.90;;;5.32;71.32;100885.72;4924771;29;19926;-81
2024/03/06 06:56:41;;;;;;;;;;;5.10;99.90;;;5.32;71.45;100888.38;4958333;29;19932;-81
2024/03/06 06:59:08;;;;;;;;;;;5.20;99.90;;;5.36;71.76;100887.03;4957040;29;20013;-81
2024/03/06 07:01:35;;;;;;;;;;;5.20;99.90;;;5.40;72.34;100888.38;4958726;29;19935;-81
2024/03/06 07:04:03;;;;;;;;;;;5.30;99.90;;;5.42;72.51;100883.75;4959211;29;19927;-81
2024/03/06 07:06:30;;;;;;;;;;;5.30;99.90;;;5.46;72.66;100892.16;4957952;29;20009;-80
2024/03/06 07:08:57;;;;;;;;;;;5.30;99.90;;;5.48;72.94;100892.84;4958538;29;20289;-81
2024/03/06 07:11:25;;;;;;;;;;;5.40;99.90;;;5.53;73.08;100893.97;4957963;29;20037;-81
2024/03/06 07:13:53;;;;;;;;;;;5.40;99.90;;;5.58;72.94;100896.94;4941049;29;19926;-82
2024/03/06 07:16:20;;;;;;;;;;;5.50;99.90;;;5.62;73.64;100902.75;4958528;29;19926;-81
2024/03/06 07:18:48;;;;;;;;;;;5.50;99.90;;;5.67;73.56;100901.22;4924577;29;19982;-81
2024/03/06 07:21:15;;;;;;;;;;;5.50;99.90;;;5.69;73.30;100901.88;4941034;29;20398;-81
2024/03/06 07:23:43;;;;;;;;;;;5.60;99.90;;;5.75;73.79;100900.38;4956590;28;19933;-81
2024/03/06 07:26:10;;;;;;;;;;;5.60;99.90;;;5.79;73.99;100906.16;4957888;29;20021;-81
2024/03/06 07:28:37;;;;;;;;;;;5.60;99.90;;;5.83;73.92;100903.00;4958119;29;20063;-80
2024/03/06 07:31:06;;;;;;;;;;;5.60;99.90;;;5.89;74.32;100904.16;4940476;29;19926;-81
2024/03/06 07:33:37;;;;;;;;;;;5.70;99.90;;;5.92;74.06;100914.44;4940743;29;19934;-80
2024/03/06 07:36:05;;;;;;;;;;;5.80;99.90;;;5.97;74.61;100920.06;4958169;29;19926;-80
2024/03/06 07:38:33;;;;;;;;;;;5.80;99.90;;;6.02;74.92;100916.88;4940355;29;19926;-81
2024/03/06 07:41:00;;;;;;;;;;;5.90;99.90;;;6.06;75.63;100921.69;4940105;29;20419;-80
2024/03/06 07:43:27;;;;;;;;;;;5.90;99.90;;;6.13;75.84;100924.47;4956538;29;19982;-81
2024/03/06 07:45:55;;;;;;;;;;;6.00;99.90;;;6.20;75.41;100930.75;4957486;28;19927;-80
2024/03/06 07:48:23;;;;;;;;;;;6.20;99.90;;;6.26;75.73;100926.56;4936887;29;19959;-81
2024/03/06 07:50:51;;;;;;;;;;;6.20;99.90;;;6.29;75.76;100927.03;4937880;29;19959;-81
2024/03/06 07:53:18;;;;;;;;;;;6.30;99.90;;;6.34;75.83;100931.81;4953001;28;20454;-81
2024/03/06 07:55:45;;;;;;;;;;;6.20;99.90;;;6.40;75.85;100928.50;4938847;29;20308;-81
2024/03/06 07:58:13;;;;;;;;;;;6.30;99.90;;;6.48;75.83;100932.91;4953000;29;19974;-81
2024/03/06 08:00:40;;;;;;;;;;;6.40;99.90;;;6.52;75.98;100940.34;4937025;29;19927;-81
2024/03/06 08:03:07;;;;;;;;;;;6.40;99.90;;;6.57;76.19;100938.00;4938307;29;19927;-81
2024/03/06 08:05:36;;;;;;;;;;;6.50;99.90;;;6.61;76.08;100943.78;4937079;29;19927;-81
2024/03/06 08:08:04;;;;;;;;;;;6.50;99.90;;;6.64;76.44;100941.63;4939694;29;19974;-81
2024/03/06 08:10:33;;;;;;;;;;;6.50;99.90;;;6.65;76.32;100951.22;4941931;29;20303;-81
2024/03/06 08:13:01;;;;;;;;;;;6.60;99.90;;;6.69;76.71;100952.53;4942119;29;19927;-81
2024/03/06 08:15:28;;;;;;;;;;;6.60;99.90;;;6.75;76.52;100953.66;4908085;29;19926;-81
2024/03/06 08:17:55;;;;;;;;;;;6.60;99.90;;;6.78;76.59;100960.44;4942131;29;19927;-81
2024/03/06 08:20:23;;;;;;;;;;;6.70;99.90;;;6.78;76.97;100965.72;4942175;29;20025;-81
2024/03/06 08:22:51;;;;;;;;;;;6.70;99.90;;;6.76;77.55;100971.22;4942036;29;19927;-81
2024/03/06 08:25:18;;;;;;;;;;;6.70;99.90;;;6.64;78.73;100965.47;4941478;29;19926;-81
2024/03/06 08:27:46;;;;;;;;;;;6.60;99.90;;;6.64;79.08;100980.56;4924236;29;19978;-81
2024/03/06 08:30:13;;;;;;;;;;;6.60;99.90;;;6.61;79.63;100981.72;4939807;29;19926;-81
2024/03/06 08:32:41;;;;;;;;;;;6.60;99.90;;;6.69;79.69;100989.66;4940878;29;19941;-81
2024/03/06 08:35:11;;;;;;;;;;;6.60;99.90;;;6.77;79.93;100987.94;4941437;29;20463;-81
2024/03/06 08:37:39;;;;;;;;;;;6.70;99.90;;;6.78;80.45;100994.88;4940355;29;19927;-81
2024/03/06 08:40:10;;;;;;;;;;;6.80;99.90;;;6.82;80.35;100999.66;4940142;29;19995;-81
2024/03/06 08:42:37;;;;;;;;;;;6.80;99.90;;;6.81;81.02;101007.81;4941566;29;19931;-81
2024/03/06 08:45:05;;;;;;;;;;;6.80;99.90;;;6.89;80.96;100998.00;4939890;29;19951;-81
2024/03/06 08:47:32;;;;;;;;;;;6.90;99.90;;;6.96;81.43;101012.19;4939614;29;20025;-81
2024/03/06 08:50:00;;;;;;;;;;;7.00;99.90;;;7.01;81.22;101011.66;4939667;29;19927;-81
2024/03/06 08:52:27;;;;;;;;;;;7.00;99.90;;;6.95;81.87;101012.38;4940826;29;19973;-81
2024/03/06 08:54:54;;;;;;;;;;;7.00;99.90;;;7.02;82.27;101015.16;4939523;29;19927;-81
2024/03/06 08:57:24;;;;;;;;;;;7.00;99.90;;;7.04;82.40;101007.84;4955858;29;20017;-81
2024/03/06 08:59:51;;;;;;;;;;;7.00;99.90;;;7.05;nan;101010.31;4939416;29;20388;-81
2024/03/06 09:02:20;;;;;;;;;;;7.10;99.90;;;7.12;82.80;101011.25;4939545;29;19958;-81
2024/03/06 09:04:47;;;;;;;;;;;7.20;99.90;;;7.19;83.04;101019.38;4940617;29;19933;-81
2024/03/06 09:07:15;;;;;;;;;;;7.20;99.90;;;7.12;83.35;101011.25;4939842;29;19926;-81
2024/03/06 09:09:42;;;;;;;;;;;7.20;99.90;;;7.12;83.48;101016.56;4941043;29;20021;-81
2024/03/06 09:12:11;;;;;;;;;;;7.20;99.90;;;7.11;83.81;101025.53;4942444;29;20332;-81
2024/03/06 09:14:40;;;;;;;;;;;7.20;99.90;;;7.19;83.41;101028.16;4939799;29;19934;-81
2024/03/06 09:17:09;;;;;;;;;;;7.30;99.90;;;7.21;83.75;101030.63;4941584;29;19970;-81
2024/03/06 09:19:36;;;;;;;;;;;7.30;99.90;;;7.16;84.64;101030.31;4940315;29;19927;-81
2024/03/06 09:22:03;;;;;;;;;;;7.40;99.90;;;7.25;85.44;101028.44;4955738;29;19926;-81
2024/03/06 09:24:31;;;;;;;;;;;7.40;99.90;;;7.30;85.52;101034.03;4940477;29;19974;-81
2024/03/06 09:26:58;;;;;;;;;;;7.40;99.90;;;7.36;86.06;101033.34;4941850;29;19927;-81
2024/03/06 09:29:25;;;;;;;;;;;7.50;99.90;;;7.42;85.79;101035.31;4940671;29;19934;-81
2024/03/06 09:31:54;;;;;;;;;;;7.50;99.90;;;7.43;85.40;101039.59;4940223;29;19927;-81
2024/03/06 09:34:21;;;;;;;;;;;7.60;99.90;;;7.43;85.50;101043.09;4941311;29;19927;-81
2024/03/06 09:36:50;;;;;;;;;;;7.60;99.90;;;7.53;84.85;101044.69;4939755;29;19984;-81
2024/03/06 09:39:20;;;;;;;;;;;7.60;99.90;;;7.66;85.41;101055.50;4941535;29;20025;-81
2024/03/06 09:41:47;;;;;;;;;;;7.80;99.90;;;7.70;86.19;101057.63;4940073;29;19931;-81
2024/03/06 09:44:15;;;;;;;;;;;7.90;99.90;;;7.75;86.65;101049.97;4941020;29;19933;-81
2024/03/06 09:46:44;;;;;;;;;;;8.00;99.90;;;7.77;87.45;101055.13;4942718;28;19927;-81
2024/03/06 09:49:14;;;;;;;;;;;8.00;99.90;;;7.89;87.84;101055.50;4958702;29;19926;-81
2024/03/06 09:51:45;;;;;;;;;;;8.10;99.90;;;7.98;88.82;101060.56;4959679;29;19972;-81
2024/03/06 09:54:14;;;;;;;;;;;8.30;99.90;;;8.03;88.75;101057.38;4939039;29;20018;-81
2024/03/06 09:56:43;;;;;;;;;;;8.30;99.90;;;8.08;88.46;101057.66;4946351;29;19934;-81
2024/03/06 09:59:10;;;;;;;;;;;8.40;99.90;;;8.11;88.26;101054.66;4959565;28;19933;-81
2024/03/06 10:01:41;;;;;;;;;;;8.40;99.90;;;8.16;87.47;101057.59;4959852;29;19934;-81
2024/03/06 10:04:38;;;;;;;;;;;8.40;99.90;;;8.16;86.98;101062.06;4959937;29;20387;-81
2024/03/06 10:07:07;;;;;;;;;;;8.50;99.90;;;8.20;86.57;101064.19;4868821;29;20528;-81
2024/03/06 10:09:35;;;;;;;;;;;8.50;99.90;;;8.15;85.85;101066.56;4882226;29;20023;-81
2024/03/06 10:12:03;;;;;;;;;;;8.50;99.90;;;8.18;85.83;101062.72;4882400;29;20329;-81
2024/03/06 10:14:32;;;;;;;;;;;8.40;99.90;;;8.22;85.56;101069.31;4881664;29;19963;-81
2024/03/06 10:17:01;;;;;;;;;;;8.50;99.90;;;8.25;85.36;101067.13;4881592;29;20052;-81
2024/03/06 10:19:31;;;;;;;;;;;8.50;99.90;;;8.27;84.74;101074.91;4867137;29;19934;-81
2024/03/06 10:21:58;;;;;;;;;;;8.50;99.90;;;8.27;84.51;101070.44;4892685;29;19943;-81
2024/03/06 10:24:27;;;;;;;;;;;8.50;99.90;;;8.27;84.81;101075.75;4900550;29;19928;-81
2024/03/06 10:26:58;;;;;;;;;;;8.50;99.90;;;8.29;84.53;101072.88;4900176;29;19992;-81
2024/03/06 10:29:26;;;;;;;;;;;8.40;99.90;;;8.31;84.21;101072.72;4900545;29;19928;-81
2024/03/06 10:31:55;;;;;;;;;;;8.50;99.90;;;8.31;83.83;101070.06;4884744;29;19928;-81
2024/03/06 10:34:23;;;;;;;;;;;8.40;99.90;;;8.33;83.34;101068.88;4900001;29;20014;-81
2024/03/06 10:36:55;;;;;;;;;;;8.50;99.90;;;8.39;83.02;101080.63;4900238;29;19927;-81
2024/03/06 10:39:22;;;;;;;;;;;8.50;99.90;;;8.42;82.43;101078.44;4899677;29;19935;-81
2024/03/06 10:41:54;;;;;;;;;;;8.50;99.90;;;8.48;82.14;101077.72;4900399;29;19977;-81
2024/03/06 10:44:25;;;;;;;;;;;8.60;99.90;;;8.52;81.81;101081.66;4922619;29;19927;-81
2024/03/06 10:47:00;;;;;;;;;;;8.60;99.90;;;8.56;81.62;101082.13;4923851;29;19933;-81
2024/03/06 10:49:29;;;;;;;;;;;8.70;99.90;;;8.58;81.64;101082.75;4929120;29;19991;-81
2024/03/06 10:52:00;;;;;;;;;;;8.70;99.90;;;8.61;81.60;101079.75;4941692;29;19973;-82
2024/03/06 10:54:32;;;;;;;;;;;8.70;99.90;;;8.63;81.36;101088.34;4959409;29;19930;-81
2024/03/06 10:56:59;;;;;;;;;;;8.80;99.90;;;8.61;79.98;101090.38;4959440;29;19927;-81
2024/03/06 10:59:36;;;;;;;;;;;8.80;99.90;;;8.60;79.40;101091.41;4942003;29;20029;-81
2024/03/06 11:02:03;;;;;;;;;;;8.70;99.90;;;8.62;79.41;101080.56;4959886;29;19933;-81
2024/03/06 11:04:33;;;;;;;;;;;8.70;99.90;;;8.66;79.08;101084.50;4942282;29;19982;-81
2024/03/06 11:07:04;;;;;;;;;;;8.80;99.90;;;8.70;78.37;101089.28;4943297;29;19926;-81
2024/03/06 11:09:34;;;;;;;;;;;8.80;99.90;;;8.72;77.82;101089.91;4942342;29;19927;-81
2024/03/06 11:12:03;;;;;;;;;;;8.80;99.90;;;8.75;77.09;101094.06;4942244;29;20355;-81
2024/03/06 11:14:32;;;;;;;;;;;8.90;99.90;;;8.80;76.05;101098.81;4942073;29;19926;-81
2024/03/06 11:17:02;;;;;;;;;;;8.90;99.90;;;8.83;75.89;101093.13;4959335;28;19977;-81
2024/03/06 11:19:32;;;;;;;;;;;9.00;99.90;;;8.81;74.70;101087.16;4959048;29;20029;-81
2024/03/06 11:21:59;;;;;;;;;;;8.90;99.90;;;8.79;75.45;101092.69;4941902;29;19927;-81
2024/03/06 11:24:34;;;;;;;;;;;8.90;99.90;;;8.77;74.68;101087.53;4941853;29;19957;-81
2024/03/06 11:27:10;;;;;;;;;;;8.90;99.90;;;8.75;74.33;101088.72;4957741;29;19978;-81